createdAt,value
2019-03-24T00:00:37.023Z,34.60
2019-03-24T00:01:41.437Z,36.20
2019-03-24T00:02:37.008Z,33.10
2019-03-24T00:03:37.016Z,35.10
2019-03-24T00:04:37.021Z,33.30
2019-03-24T00:05:36.964Z,34.90
2019-03-24T00:06:37.035Z,33.40
2019-03-24T00:07:36.950Z,31.70
2019-03-24T00:08:36.954Z,34.40
2019-03-24T00:09:36.938Z,31.40
2019-03-24T00:10:36.919Z,32.00
2019-03-24T00:11:36.930Z,31.10
2019-03-24T00:12:36.896Z,29.60
2019-03-24T00:13:36.874Z,31.20
2019-03-24T00:14:36.872Z,31.60
2019-03-24T00:15:36.891Z,30.30
2019-03-24T00:16:36.855Z,31.60
2019-03-24T00:17:36.868Z,30.60
2019-03-24T00:18:36.831Z,30.10
2019-03-24T00:19:36.934Z,29.20
2019-03-24T00:20:36.808Z,29.30
2019-03-24T00:21:36.826Z,28.90
2019-03-24T00:22:36.828Z,28.30
2019-03-24T00:23:36.809Z,28.10
2019-03-24T00:24:36.816Z,28.20
2019-03-24T00:25:36.757Z,26.00
2019-03-24T00:26:36.754Z,26.00
2019-03-24T00:27:36.758Z,25.20
2019-03-24T00:28:36.711Z,27.20
2019-03-24T00:29:36.705Z,25.80
2019-03-24T00:30:36.695Z,24.50
2019-03-24T00:31:36.685Z,25.20
2019-03-24T00:32:36.712Z,25.40
2019-03-24T00:33:36.678Z,24.60
2019-03-24T00:34:36.649Z,24.50
2019-03-24T00:35:36.722Z,24.20
2019-03-24T00:36:36.640Z,24.30
2019-03-24T00:37:36.679Z,23.50
2019-03-24T00:38:36.632Z,23.90
2019-03-24T00:39:36.593Z,22.90
2019-03-24T00:40:36.584Z,23.20
2019-03-24T00:41:36.582Z,22.30
2019-03-24T00:42:36.594Z,21.40
2019-03-24T00:43:36.577Z,21.80
2019-03-24T00:44:36.564Z,22.60
2019-03-24T00:45:37.263Z,22.80
2019-03-24T00:46:36.540Z,22.30
2019-03-24T00:47:36.544Z,21.80
2019-03-24T00:48:36.503Z,20.30
2019-03-24T00:49:36.497Z,26.60
2019-03-24T00:50:36.472Z,25.50
2019-03-24T00:51:36.479Z,29.70
2019-03-24T00:52:36.483Z,25.30
2019-03-24T00:53:36.450Z,28.20
2019-03-24T00:54:36.434Z,28.20
2019-03-24T00:55:36.436Z,25.50
2019-03-24T00:56:36.414Z,20.60
2019-03-24T00:57:37.550Z,21.80
2019-03-24T00:58:36.441Z,23.40
2019-03-24T00:59:36.388Z,21.40
2019-03-24T01:00:36.368Z,22.10
2019-03-24T01:01:36.379Z,21.40
2019-03-24T01:02:36.389Z,22.60
2019-03-24T01:03:36.336Z,23.00
2019-03-24T01:04:36.330Z,23.30
2019-03-24T01:05:36.321Z,23.80
2019-03-24T01:06:36.323Z,27.30
2019-03-24T01:07:36.317Z,29.50
2019-03-24T01:08:36.279Z,26.70
2019-03-24T01:09:36.264Z,29.90
2019-03-24T01:10:36.267Z,27.60
2019-03-24T01:11:36.252Z,29.20
2019-03-24T01:12:36.249Z,27.20
2019-03-24T01:13:36.257Z,27.60
2019-03-24T01:14:36.212Z,31.90
2019-03-24T01:15:47.114Z,25.80
2019-03-24T01:16:37.202Z,23.90
2019-03-24T01:17:36.214Z,23.50
2019-03-24T01:18:36.200Z,25.20
2019-03-24T01:19:36.198Z,25.90
2019-03-24T01:20:36.156Z,22.20
2019-03-24T01:21:36.144Z,23.90
2019-03-24T01:22:36.128Z,23.40
2019-03-24T01:23:36.159Z,24.70
2019-03-24T01:24:36.170Z,24.00
2019-03-24T01:25:36.093Z,24.10
2019-03-24T01:26:36.100Z,24.10
2019-03-24T01:27:36.089Z,22.70
2019-03-24T01:28:36.103Z,23.60
2019-03-24T01:29:36.063Z,23.10
2019-03-24T01:30:36.045Z,23.10
2019-03-24T01:31:36.038Z,23.90
2019-03-24T01:32:36.024Z,24.20
2019-03-24T01:33:36.039Z,24.00
2019-03-24T01:34:36.006Z,25.10
2019-03-24T01:35:36.000Z,25.50
2019-03-24T01:36:35.979Z,25.90
2019-03-24T01:37:35.987Z,25.00
2019-03-24T01:38:36.030Z,25.50
2019-03-24T01:39:35.948Z,25.00
2019-03-24T01:40:35.945Z,24.90
2019-03-24T01:41:35.947Z,24.90
2019-03-24T01:42:35.910Z,25.50
2019-03-24T01:43:35.904Z,25.30
2019-03-24T01:44:36.060Z,26.90
2019-03-24T01:45:35.880Z,26.20
2019-03-24T01:46:35.876Z,26.50
2019-03-24T01:47:35.899Z,26.50
2019-03-24T01:48:35.846Z,25.10
2019-03-24T01:49:35.854Z,24.50
2019-03-24T01:50:35.837Z,25.40
2019-03-24T01:51:35.818Z,24.00
2019-03-24T01:52:35.812Z,23.30
2019-03-24T01:53:35.794Z,22.30
2019-03-24T01:54:35.802Z,22.50
2019-03-24T01:55:35.766Z,23.00
2019-03-24T01:56:35.762Z,22.70
2019-03-24T01:57:35.765Z,22.30
2019-03-24T01:58:35.753Z,21.50
2019-03-24T01:59:35.772Z,20.30
2019-03-24T02:00:35.720Z,19.10
2019-03-24T02:01:35.702Z,20.20
2019-03-24T02:02:35.692Z,20.20
2019-03-24T02:03:35.733Z,18.80
2019-03-24T02:04:35.704Z,19.60
2019-03-24T02:05:35.680Z,19.30
2019-03-24T02:06:35.649Z,18.70
2019-03-24T02:07:35.669Z,18.80
2019-03-24T02:08:35.634Z,18.70
2019-03-24T02:09:35.669Z,18.60
2019-03-24T02:10:35.654Z,19.20
2019-03-24T02:11:35.613Z,19.70
2019-03-24T02:12:35.590Z,18.10
2019-03-24T02:13:35.584Z,18.80
2019-03-24T02:14:35.598Z,18.30
2019-03-24T02:15:35.574Z,16.00
2019-03-24T02:16:35.540Z,15.90
2019-03-24T02:17:35.532Z,16.20
2019-03-24T02:18:35.527Z,16.30
2019-03-24T02:19:35.538Z,16.60
2019-03-24T02:20:35.506Z,15.90
2019-03-24T02:21:35.502Z,15.70
2019-03-24T02:22:35.483Z,15.50
2019-03-24T02:23:35.466Z,15.30
2019-03-24T02:24:35.491Z,15.30
2019-03-24T02:25:35.444Z,14.90
2019-03-24T02:26:35.450Z,15.00
2019-03-24T02:27:35.438Z,13.80
2019-03-24T02:28:35.410Z,13.30
2019-03-24T02:29:35.465Z,14.00
2019-03-24T02:30:35.425Z,13.90
2019-03-24T02:31:35.379Z,13.80
2019-03-24T02:32:35.400Z,13.80
2019-03-24T02:33:35.389Z,14.50
2019-03-24T02:34:35.363Z,13.70
2019-03-24T02:35:35.407Z,13.40
2019-03-24T02:36:35.337Z,12.50
2019-03-24T02:37:35.322Z,12.90
2019-03-24T02:38:35.356Z,13.00
2019-03-24T02:39:35.296Z,12.90
2019-03-24T02:40:35.332Z,13.00
2019-03-24T02:41:35.269Z,12.70
2019-03-24T02:42:35.263Z,13.00
2019-03-24T02:43:35.262Z,13.00
2019-03-24T02:44:35.255Z,13.20
2019-03-24T02:45:35.261Z,12.50
2019-03-24T02:46:35.218Z,12.50
2019-03-24T02:47:35.206Z,12.20
2019-03-24T02:48:35.207Z,13.00
2019-03-24T02:49:35.184Z,12.70
2019-03-24T02:50:35.211Z,12.00
2019-03-24T02:51:35.167Z,12.10
2019-03-24T02:52:35.156Z,11.80
2019-03-24T02:53:35.157Z,11.20
2019-03-24T02:54:35.159Z,12.00
2019-03-24T02:55:35.127Z,11.80
2019-03-24T02:56:35.131Z,11.80
2019-03-24T02:57:35.109Z,11.30
2019-03-24T02:58:35.093Z,11.60
2019-03-24T02:59:35.107Z,12.50
2019-03-24T03:00:35.082Z,13.00
2019-03-24T03:01:35.087Z,11.60
2019-03-24T03:02:35.043Z,12.70
2019-03-24T03:03:35.032Z,12.70
2019-03-24T03:04:35.029Z,12.00
2019-03-24T03:05:35.035Z,11.50
2019-03-24T03:06:35.008Z,12.10
2019-03-24T03:07:35.031Z,11.70
2019-03-24T03:08:35.009Z,13.00
2019-03-24T03:09:34.967Z,13.10
2019-03-24T03:10:34.979Z,12.50
2019-03-24T03:11:34.949Z,13.00
2019-03-24T03:12:34.943Z,12.30
2019-03-24T03:13:34.954Z,13.30
2019-03-24T03:14:34.921Z,12.50
2019-03-24T03:15:34.904Z,14.50
2019-03-24T03:16:38.885Z,13.40
2019-03-24T03:17:34.896Z,12.90
2019-03-24T03:18:34.894Z,14.60
2019-03-24T03:19:34.874Z,13.80
2019-03-24T03:20:34.872Z,14.40
2019-03-24T03:21:34.845Z,14.30
2019-03-24T03:22:34.837Z,14.40
2019-03-24T03:23:34.859Z,13.90
2019-03-24T03:24:34.835Z,14.40
2019-03-24T03:25:34.813Z,13.30
2019-03-24T03:26:34.863Z,13.80
2019-03-24T03:27:34.786Z,13.50
2019-03-24T03:28:34.942Z,14.40
2019-03-24T03:29:34.885Z,14.00
2019-03-24T03:30:34.766Z,14.20
2019-03-24T03:31:34.888Z,14.10
2019-03-24T03:32:34.728Z,15.00
2019-03-24T03:33:34.756Z,14.40
2019-03-24T03:34:34.737Z,13.50
2019-03-24T03:35:34.706Z,13.80
2019-03-24T03:36:34.685Z,14.50
2019-03-24T03:37:34.683Z,14.80
2019-03-24T03:38:34.717Z,14.80
2019-03-24T03:39:34.655Z,14.90
2019-03-24T03:40:34.681Z,13.90
2019-03-24T03:41:34.651Z,14.70
2019-03-24T03:42:34.623Z,14.00
2019-03-24T03:43:34.630Z,14.30
2019-03-24T03:44:34.661Z,13.50
2019-03-24T03:45:34.592Z,14.00
2019-03-24T03:46:34.586Z,14.00
2019-03-24T03:47:34.581Z,13.70
2019-03-24T03:48:34.582Z,14.20
2019-03-24T03:49:34.543Z,13.40
2019-03-24T03:50:34.551Z,14.40
2019-03-24T03:51:34.515Z,14.00
2019-03-24T03:52:34.513Z,15.00
2019-03-24T03:53:34.498Z,11.80
2019-03-24T03:54:34.520Z,15.40
2019-03-24T03:55:34.471Z,13.90
2019-03-24T03:56:34.470Z,12.50
2019-03-24T03:57:34.459Z,13.20
2019-03-24T03:58:34.468Z,12.10
2019-03-24T03:59:34.464Z,12.90
2019-03-24T04:00:34.489Z,12.40
2019-03-24T04:01:34.430Z,12.60
2019-03-24T04:02:34.397Z,13.00
2019-03-24T04:03:34.406Z,12.10
2019-03-24T04:04:34.406Z,12.60
2019-03-24T04:05:34.375Z,11.70
2019-03-24T04:06:34.356Z,11.70
2019-03-24T04:07:34.356Z,11.80
2019-03-24T04:08:34.335Z,11.80
2019-03-24T04:09:34.370Z,11.00
2019-03-24T04:10:34.344Z,11.90
2019-03-24T04:11:34.352Z,12.80
2019-03-24T04:12:34.293Z,11.50
2019-03-24T04:13:34.300Z,11.50
2019-03-24T04:14:34.335Z,11.90
2019-03-24T04:15:34.273Z,12.30
2019-03-24T04:16:34.260Z,12.30
2019-03-24T04:17:34.277Z,11.30
2019-03-24T04:18:34.227Z,11.50
2019-03-24T04:19:34.234Z,11.60
2019-03-24T04:20:34.206Z,12.50
2019-03-24T04:21:34.205Z,11.90
2019-03-24T04:22:34.190Z,12.80
2019-03-24T04:23:34.194Z,12.00
2019-03-24T04:24:34.186Z,13.50
2019-03-24T04:25:34.155Z,12.00
2019-03-24T04:26:34.147Z,12.60
2019-03-24T04:27:34.141Z,12.20
2019-03-24T04:28:34.135Z,11.80
2019-03-24T04:29:34.254Z,12.00
2019-03-24T04:30:34.098Z,12.40
2019-03-24T04:31:34.107Z,11.30
2019-03-24T04:32:34.091Z,12.10
2019-03-24T04:33:34.082Z,11.80
2019-03-24T04:34:34.134Z,12.20
2019-03-24T04:35:34.052Z,11.70
2019-03-24T04:36:34.043Z,11.60
2019-03-24T04:37:34.023Z,12.30
2019-03-24T04:38:34.027Z,12.50
2019-03-24T04:39:34.105Z,11.00
2019-03-24T04:40:34.002Z,11.50
2019-03-24T04:41:33.979Z,12.00
2019-03-24T04:42:33.972Z,11.90
2019-03-24T04:43:33.967Z,11.70
2019-03-24T04:44:33.953Z,12.00
2019-03-24T04:45:33.994Z,11.00
2019-03-24T04:46:33.941Z,11.20
2019-03-24T04:47:33.949Z,10.70
2019-03-24T04:48:33.907Z,10.50
2019-03-24T04:49:33.905Z,10.60
2019-03-24T04:50:33.912Z,10.50
2019-03-24T04:51:33.903Z,10.50
2019-03-24T04:52:33.871Z,11.30
2019-03-24T04:53:33.885Z,9.90
2019-03-24T04:54:33.840Z,11.00
2019-03-24T04:55:33.849Z,10.80
2019-03-24T04:56:33.819Z,10.10
2019-03-24T04:57:33.829Z,10.50
2019-03-24T04:58:33.846Z,10.10
2019-03-24T04:59:33.795Z,10.90
2019-03-24T05:00:33.803Z,10.30
2019-03-24T05:01:33.769Z,9.80
2019-03-24T05:02:33.755Z,11.40
2019-03-24T05:03:33.753Z,10.80
2019-03-24T05:04:33.733Z,9.90
2019-03-24T05:05:33.762Z,9.50
2019-03-24T05:06:33.738Z,16.10
2019-03-24T05:07:33.704Z,12.70
2019-03-24T05:08:33.700Z,13.70
2019-03-24T05:09:33.680Z,13.60
2019-03-24T05:10:33.696Z,12.10
2019-03-24T05:11:33.695Z,10.60
2019-03-24T05:12:33.685Z,15.10
2019-03-24T05:13:33.633Z,9.70
2019-03-24T05:14:33.619Z,9.40
2019-03-24T05:15:33.641Z,9.30
2019-03-24T05:16:33.601Z,9.00
2019-03-24T05:17:33.595Z,8.50
2019-03-24T05:18:33.583Z,8.40
2019-03-24T05:19:33.573Z,8.30
2019-03-24T05:20:33.593Z,8.20
2019-03-24T05:21:33.565Z,8.30
2019-03-24T05:22:33.539Z,9.30
2019-03-24T05:23:33.540Z,8.60
2019-03-24T05:24:33.530Z,8.80
2019-03-24T05:25:33.509Z,8.10
2019-03-24T05:26:33.508Z,8.80
2019-03-24T05:27:33.491Z,8.90
2019-03-24T05:28:33.472Z,8.90
2019-03-24T05:29:33.469Z,8.80
2019-03-24T05:30:33.472Z,9.40
2019-03-24T05:31:33.478Z,7.80
2019-03-24T05:32:33.426Z,8.50
2019-03-24T05:33:33.429Z,8.50
2019-03-24T05:34:33.406Z,8.30
2019-03-24T05:35:33.398Z,8.60
2019-03-24T05:36:33.423Z,8.20
2019-03-24T05:37:33.381Z,8.10
2019-03-24T05:38:33.359Z,8.10
2019-03-24T05:39:33.369Z,10.90
2019-03-24T05:40:33.341Z,11.90
2019-03-24T05:41:33.357Z,13.70
2019-03-24T05:42:33.339Z,15.30
2019-03-24T05:43:33.320Z,10.80
2019-03-24T05:44:33.301Z,15.00
2019-03-24T05:45:33.289Z,11.60
2019-03-24T05:46:33.323Z,10.30
2019-03-24T05:47:37.338Z,8.50
2019-03-24T05:48:33.268Z,8.00
2019-03-24T05:49:33.267Z,9.00
2019-03-24T05:50:33.233Z,8.50
2019-03-24T05:51:33.279Z,8.50
2019-03-24T05:52:33.265Z,8.50
2019-03-24T05:53:33.203Z,9.60
2019-03-24T05:54:33.191Z,8.60
2019-03-24T05:55:33.181Z,9.40
2019-03-24T05:56:33.191Z,8.40
2019-03-24T05:57:33.160Z,9.10
2019-03-24T05:58:33.146Z,9.10
2019-03-24T05:59:33.153Z,8.10
2019-03-24T06:00:33.131Z,8.40
2019-03-24T06:01:33.137Z,8.90
2019-03-24T06:02:33.103Z,9.20
2019-03-24T06:03:33.101Z,8.70
2019-03-24T06:04:33.092Z,9.40
2019-03-24T06:05:33.073Z,8.40
2019-03-24T06:06:33.102Z,8.20
2019-03-24T06:07:33.077Z,8.50
2019-03-24T06:08:33.040Z,7.90
2019-03-24T06:09:33.033Z,8.60
2019-03-24T06:10:33.028Z,8.30
2019-03-24T06:11:33.009Z,8.60
2019-03-24T06:12:33.010Z,7.90
2019-03-24T06:13:32.986Z,9.10
2019-03-24T06:14:32.972Z,8.10
2019-03-24T06:15:32.964Z,8.70
2019-03-24T06:16:32.977Z,8.40
2019-03-24T06:17:32.977Z,8.10
2019-03-24T06:18:32.941Z,8.00
2019-03-24T06:19:32.928Z,8.20
2019-03-24T06:20:32.907Z,8.30
2019-03-24T06:21:32.908Z,8.30
2019-03-24T06:22:32.916Z,9.00
2019-03-24T06:23:32.887Z,7.90
2019-03-24T06:24:32.887Z,7.50
2019-03-24T06:25:34.943Z,7.90
2019-03-24T06:26:32.848Z,8.30
2019-03-24T06:27:33.016Z,8.20
2019-03-24T06:28:32.825Z,7.70
2019-03-24T06:29:32.821Z,8.60
2019-03-24T06:30:32.810Z,9.30
2019-03-24T06:31:32.820Z,10.70
2019-03-24T06:32:32.802Z,11.30
2019-03-24T06:33:32.779Z,14.20
2019-03-24T06:34:32.765Z,15.80
2019-03-24T06:35:32.760Z,18.30
2019-03-24T06:36:32.753Z,19.20
2019-03-24T06:37:32.769Z,24.00
2019-03-24T06:38:32.717Z,26.70
2019-03-24T06:39:32.730Z,28.10
2019-03-24T06:40:32.700Z,29.60
2019-03-24T06:41:32.692Z,29.40
2019-03-24T06:42:32.707Z,29.00
2019-03-24T06:43:32.669Z,29.50
2019-03-24T06:44:32.658Z,26.90
2019-03-24T06:45:32.642Z,25.20
2019-03-24T06:46:32.630Z,25.10
2019-03-24T06:47:32.666Z,24.50
2019-03-24T06:48:32.640Z,24.10
2019-03-24T06:49:32.602Z,23.00
2019-03-24T06:50:32.587Z,20.30
2019-03-24T06:51:32.576Z,17.50
2019-03-24T06:52:32.578Z,19.20
2019-03-24T06:53:32.598Z,18.90
2019-03-24T06:54:32.548Z,19.80
2019-03-24T06:55:32.533Z,16.30
2019-03-24T06:56:32.532Z,13.30
2019-03-24T06:57:32.508Z,12.90
2019-03-24T06:58:32.521Z,12.90
2019-03-24T06:59:32.504Z,13.10
2019-03-24T07:00:32.481Z,13.60
2019-03-24T07:01:32.469Z,12.20
2019-03-24T07:02:32.480Z,11.30
2019-03-24T07:03:32.786Z,11.50
2019-03-24T07:04:32.453Z,10.90
2019-03-24T07:05:32.420Z,9.30
2019-03-24T07:06:34.656Z,8.80
2019-03-24T07:07:32.415Z,9.00
2019-03-24T07:08:32.420Z,9.00
2019-03-24T07:09:32.385Z,8.60
2019-03-24T07:10:32.389Z,8.60
2019-03-24T07:11:32.392Z,8.30
2019-03-24T07:12:32.366Z,7.80
2019-03-24T07:13:32.422Z,8.10
2019-03-24T07:14:32.329Z,7.50
2019-03-24T07:15:32.319Z,7.20
2019-03-24T07:16:32.332Z,6.90
2019-03-24T07:17:32.325Z,7.40
2019-03-24T07:18:32.310Z,6.90
2019-03-24T07:19:32.270Z,6.60
2019-03-24T07:20:32.263Z,7.10
2019-03-24T07:21:32.264Z,7.10
2019-03-24T07:22:32.254Z,6.70
2019-03-24T07:23:32.259Z,6.90
2019-03-24T07:24:32.244Z,6.60
2019-03-24T07:25:32.212Z,5.60
2019-03-24T07:26:32.196Z,7.30
2019-03-24T07:27:32.203Z,6.50
2019-03-24T07:28:32.243Z,6.30
2019-03-24T07:29:32.160Z,7.00
2019-03-24T07:30:32.168Z,6.40
2019-03-24T07:31:32.192Z,7.30
2019-03-24T07:32:32.135Z,6.40
2019-03-24T07:33:32.135Z,6.10
2019-03-24T07:34:32.104Z,7.10
2019-03-24T07:35:32.098Z,6.00
2019-03-24T07:36:32.086Z,6.70
2019-03-24T07:37:32.075Z,6.10
2019-03-24T07:38:32.117Z,5.80
2019-03-24T07:39:32.072Z,6.20
2019-03-24T07:40:32.074Z,6.10
2019-03-24T07:41:32.033Z,5.90
2019-03-24T07:42:32.030Z,5.10
2019-03-24T07:43:32.009Z,5.80
2019-03-24T07:44:32.043Z,6.10
2019-03-24T07:45:32.010Z,8.00
2019-03-24T07:46:32.012Z,9.60
2019-03-24T07:47:31.966Z,9.70
2019-03-24T07:48:31.956Z,6.80
2019-03-24T07:49:31.960Z,8.60
2019-03-24T07:50:31.948Z,9.70
2019-03-24T07:51:31.938Z,8.20
2019-03-24T07:52:31.920Z,7.50
2019-03-24T07:53:31.905Z,9.00
2019-03-24T07:54:31.932Z,5.90
2019-03-24T07:55:31.886Z,5.20
2019-03-24T07:56:31.880Z,5.30
2019-03-24T07:57:31.876Z,5.40
2019-03-24T07:58:31.857Z,5.20
2019-03-24T07:59:31.866Z,5.10
2019-03-24T08:00:31.831Z,4.50
2019-03-24T08:01:31.848Z,5.60
2019-03-24T08:02:31.826Z,5.10
2019-03-24T08:03:31.854Z,5.10
2019-03-24T08:04:31.824Z,5.30
2019-03-24T08:05:31.768Z,6.60
2019-03-24T08:06:31.783Z,4.60
2019-03-24T08:07:31.764Z,4.80
2019-03-24T08:08:31.752Z,4.40
2019-03-24T08:09:31.766Z,4.60
2019-03-24T08:10:31.720Z,4.40
2019-03-24T08:11:31.714Z,4.70
2019-03-24T08:12:31.716Z,4.70
2019-03-24T08:13:31.746Z,4.10
2019-03-24T08:14:31.718Z,4.80
2019-03-24T08:15:31.700Z,4.90
2019-03-24T08:16:31.658Z,4.20
2019-03-24T08:17:31.646Z,4.50
2019-03-24T08:18:31.637Z,4.80
2019-03-24T08:19:31.639Z,4.90
2019-03-24T08:20:31.658Z,5.20
2019-03-24T08:21:31.608Z,4.80
2019-03-24T08:22:31.602Z,4.90
2019-03-24T08:23:31.591Z,4.70
2019-03-24T08:24:31.630Z,4.70
2019-03-24T08:25:31.580Z,5.20
2019-03-24T08:26:31.568Z,5.40
2019-03-24T08:27:31.584Z,6.00
2019-03-24T08:28:31.528Z,5.10
2019-03-24T08:29:31.542Z,5.20
2019-03-24T08:30:31.526Z,5.20
2019-03-24T08:31:31.506Z,5.20
2019-03-24T08:32:31.485Z,5.10
2019-03-24T08:33:31.477Z,4.90
2019-03-24T08:34:31.524Z,5.40
2019-03-24T08:35:31.454Z,5.10
2019-03-24T08:36:31.454Z,4.40
2019-03-24T08:37:31.449Z,5.10
2019-03-24T08:38:31.427Z,5.20
2019-03-24T08:39:31.417Z,4.90
2019-03-24T08:40:31.462Z,5.30
2019-03-24T08:41:31.387Z,5.10
2019-03-24T08:42:31.408Z,5.90
2019-03-24T08:43:31.380Z,5.60
2019-03-24T08:44:31.366Z,5.80
2019-03-24T08:45:31.373Z,5.60
2019-03-24T08:46:31.332Z,6.10
2019-03-24T08:47:31.321Z,5.90
2019-03-24T08:48:40.317Z,5.10
2019-03-24T08:49:32.290Z,6.10
2019-03-24T08:50:31.322Z,4.80
2019-03-24T08:51:31.281Z,5.50
2019-03-24T08:52:31.260Z,5.50
2019-03-24T08:53:31.260Z,6.00
2019-03-24T08:54:31.250Z,5.70
2019-03-24T08:55:31.269Z,5.70
2019-03-24T08:56:31.222Z,5.50
2019-03-24T08:57:32.479Z,5.10
2019-03-24T08:58:31.226Z,5.10
2019-03-24T08:59:31.190Z,5.70
2019-03-24T09:00:31.261Z,5.90
2019-03-24T09:01:31.178Z,5.10
2019-03-24T09:02:31.162Z,6.00
2019-03-24T09:03:32.653Z,5.60
2019-03-24T09:04:31.147Z,5.00
2019-03-24T09:05:33.562Z,4.70
2019-03-24T09:06:31.122Z,4.40
2019-03-24T09:07:31.138Z,4.90
2019-03-24T09:08:32.069Z,4.70
2019-03-24T09:09:31.087Z,4.80
2019-03-24T09:10:31.089Z,4.90
2019-03-24T09:11:31.671Z,4.90
2019-03-24T09:12:31.315Z,4.80
2019-03-24T09:13:31.033Z,4.10
2019-03-24T09:14:31.026Z,4.90
2019-03-24T09:15:31.059Z,4.70
2019-03-24T09:16:31.018Z,4.60
2019-03-24T09:17:31.066Z,4.90
2019-03-24T09:18:30.988Z,5.10
2019-03-24T09:19:30.968Z,5.20
2019-03-24T09:20:40.965Z,20.40
2019-03-24T09:21:31.961Z,7.60
2019-03-24T09:22:30.946Z,4.80
2019-03-24T09:23:30.979Z,6.60
2019-03-24T09:24:30.912Z,4.80
2019-03-24T09:25:30.993Z,7.00
2019-03-24T09:26:30.891Z,4.20
2019-03-24T09:27:30.901Z,4.60
2019-03-24T09:28:30.887Z,4.60
2019-03-24T09:29:30.882Z,4.00
2019-03-24T09:30:30.891Z,3.70
2019-03-24T09:31:30.847Z,4.50
2019-03-24T09:32:30.854Z,3.90
2019-03-24T09:33:30.820Z,3.90
2019-03-24T09:34:30.823Z,3.70
2019-03-24T09:35:30.823Z,3.80
2019-03-24T09:36:30.834Z,4.30
2019-03-24T09:37:30.785Z,4.10
2019-03-24T09:38:30.763Z,3.30
2019-03-24T09:39:30.759Z,3.90
2019-03-24T09:40:30.765Z,4.70
2019-03-24T09:41:30.764Z,4.50
2019-03-24T09:42:30.735Z,5.00
2019-03-24T09:43:30.702Z,4.20
2019-03-24T09:44:30.703Z,4.30
2019-03-24T09:45:30.702Z,4.10
2019-03-24T09:46:30.763Z,4.60
2019-03-24T09:47:30.667Z,5.00
2019-03-24T09:48:30.699Z,3.90
2019-03-24T09:49:30.654Z,4.30
2019-03-24T09:50:30.639Z,4.50
2019-03-24T09:51:30.642Z,9.20
2019-03-24T09:52:30.623Z,5.50
2019-03-24T09:53:30.604Z,3.90
2019-03-24T09:54:30.592Z,6.10
2019-03-24T09:55:30.580Z,6.20
2019-03-24T09:56:30.588Z,4.60
2019-03-24T09:57:30.584Z,6.00
2019-03-24T09:58:30.570Z,5.40
2019-03-24T09:59:30.535Z,5.10
2019-03-24T10:00:30.523Z,4.00
2019-03-24T10:01:30.535Z,4.50
2019-03-24T10:02:30.507Z,3.70
2019-03-24T10:03:30.518Z,3.80
2019-03-24T10:04:39.666Z,4.50
2019-03-24T10:05:30.471Z,4.60
2019-03-24T10:06:30.493Z,3.70
2019-03-24T10:07:30.449Z,4.20
2019-03-24T10:08:30.446Z,3.80
2019-03-24T10:09:30.437Z,4.20
2019-03-24T10:10:30.471Z,3.70
2019-03-24T10:11:30.461Z,3.70
2019-03-24T10:12:30.414Z,4.00
2019-03-24T10:13:30.384Z,4.20
2019-03-24T10:14:30.386Z,3.40
2019-03-24T10:15:30.366Z,3.80
2019-03-24T10:16:30.385Z,3.90
2019-03-24T10:17:30.346Z,3.90
2019-03-24T10:18:30.341Z,3.40
2019-03-24T10:19:30.316Z,3.50
2019-03-24T10:20:30.311Z,4.10
2019-03-24T10:21:30.327Z,3.70
2019-03-24T10:22:30.291Z,5.90
2019-03-24T10:23:30.270Z,3.50
2019-03-24T10:24:39.218Z,4.00
2019-03-24T10:25:30.258Z,4.80
2019-03-24T10:26:30.290Z,3.90
2019-03-24T10:27:30.236Z,4.00
2019-03-24T10:28:30.238Z,3.20
2019-03-24T10:29:30.202Z,3.50
2019-03-24T10:30:30.191Z,3.70
2019-03-24T10:31:30.256Z,3.00
2019-03-24T10:32:30.203Z,2.90
2019-03-24T10:33:30.171Z,3.10
2019-03-24T10:34:30.151Z,3.30
2019-03-24T10:35:30.144Z,3.10
2019-03-24T10:36:30.168Z,2.60
2019-03-24T10:37:30.136Z,3.50
2019-03-24T10:38:30.129Z,3.20
2019-03-24T10:39:31.951Z,3.30
2019-03-24T10:40:30.089Z,3.30
2019-03-24T10:41:30.093Z,2.80
2019-03-24T10:42:30.066Z,3.10
2019-03-24T10:43:30.060Z,3.40
2019-03-24T10:44:30.039Z,3.30
2019-03-24T10:45:30.031Z,3.60
2019-03-24T10:46:30.054Z,3.70
2019-03-24T10:48:33.852Z,3.30
2019-03-24T10:49:51.004Z,3.70
2019-03-24T10:50:29.987Z,3.50
2019-03-24T10:51:30.018Z,3.50
2019-03-24T10:52:29.968Z,3.80
2019-03-24T10:53:29.951Z,3.30
2019-03-24T10:54:29.948Z,3.70
2019-03-24T10:55:29.950Z,3.80
2019-03-24T10:56:29.945Z,4.00
2019-03-24T10:57:29.917Z,3.00
2019-03-24T10:58:29.905Z,4.10
2019-03-24T10:59:29.887Z,3.40
2019-03-24T11:00:29.917Z,3.70
2019-03-24T11:01:29.855Z,3.20
2019-03-24T11:02:29.868Z,2.90
2019-03-24T11:03:29.869Z,3.50
2019-03-24T11:04:29.844Z,3.20
2019-03-24T11:05:29.833Z,3.40
2019-03-24T11:06:29.886Z,2.90
2019-03-24T11:07:29.827Z,3.30
2019-03-24T11:09:30.969Z,3.70
2019-03-24T11:10:29.753Z,2.80
2019-03-24T11:11:29.761Z,3.60
2019-03-24T11:12:29.813Z,3.00
2019-03-24T11:13:29.721Z,3.00
2019-03-24T11:14:29.744Z,3.10
2019-03-24T11:15:29.711Z,3.10
2019-03-24T11:16:29.701Z,2.70
2019-03-24T11:17:29.709Z,3.10
2019-03-24T11:18:29.700Z,3.30
2019-03-24T11:19:35.645Z,2.80
2019-03-24T11:20:30.655Z,3.00
2019-03-24T11:21:29.641Z,7.30
2019-03-24T11:22:29.649Z,3.50
2019-03-24T11:23:29.626Z,2.70
2019-03-24T11:24:29.645Z,2.90
2019-03-24T11:25:29.596Z,4.90
2019-03-24T11:26:29.589Z,3.90
2019-03-24T11:27:29.613Z,2.60
2019-03-24T11:28:29.591Z,3.60
2019-03-24T11:29:29.565Z,2.60
2019-03-24T11:30:29.547Z,2.60
2019-03-24T11:31:29.540Z,2.40
2019-03-24T11:32:29.539Z,2.90
2019-03-24T11:33:29.766Z,2.40
2019-03-24T11:34:29.510Z,2.40
2019-03-24T11:35:29.490Z,3.20
2019-03-24T11:36:29.494Z,2.50
2019-03-24T11:37:29.491Z,2.60
2019-03-24T11:38:29.453Z,2.60
2019-03-24T11:39:29.439Z,2.40
2019-03-24T11:40:29.440Z,3.10
2019-03-24T11:41:29.431Z,3.20
2019-03-24T11:42:29.729Z,2.60
2019-03-24T11:43:29.415Z,2.70
2019-03-24T11:44:29.436Z,3.20
2019-03-24T11:45:29.389Z,4.60
2019-03-24T11:46:29.383Z,2.90
2019-03-24T11:47:29.393Z,2.70
2019-03-24T11:48:29.415Z,2.20
2019-03-24T11:49:29.340Z,2.40
2019-03-24T11:50:29.328Z,2.40
2019-03-24T11:51:29.314Z,2.40
2019-03-24T11:52:29.349Z,2.40
2019-03-24T11:53:29.294Z,2.50
2019-03-24T11:54:30.212Z,10.50
2019-03-24T11:55:29.273Z,2.80
2019-03-24T11:56:29.267Z,2.60
2019-03-24T11:57:29.267Z,2.60
2019-03-24T11:58:29.245Z,2.80
2019-03-24T11:59:29.229Z,3.00
2019-03-24T12:00:29.221Z,3.10
2019-03-24T12:01:37.970Z,3.00
2019-03-24T12:02:30.231Z,3.30
2019-03-24T12:03:29.189Z,3.40
2019-03-24T12:04:29.195Z,3.20
2019-03-24T12:05:29.164Z,3.40
2019-03-24T12:06:29.161Z,3.70
2019-03-24T12:07:29.191Z,3.60
2019-03-24T12:08:29.139Z,3.20
2019-03-24T12:09:29.115Z,2.90
2019-03-24T12:10:29.118Z,3.60
2019-03-24T12:11:29.133Z,2.70
2019-03-24T12:12:29.121Z,3.40
2019-03-24T12:13:29.076Z,3.20
2019-03-24T12:14:29.079Z,3.30
2019-03-24T12:15:29.076Z,3.20
2019-03-24T12:16:29.058Z,3.00
2019-03-24T12:17:29.066Z,3.00
2019-03-24T12:18:29.041Z,2.70
2019-03-24T12:19:29.050Z,3.40
2019-03-24T12:20:29.011Z,3.10
2019-03-24T12:21:28.995Z,3.20
2019-03-24T12:22:29.019Z,3.10
2019-03-24T12:23:28.973Z,3.00
2019-03-24T12:24:28.965Z,3.30
2019-03-24T12:25:28.956Z,2.80
2019-03-24T12:26:28.977Z,3.10
2019-03-24T12:27:28.954Z,3.00
2019-03-24T12:28:28.921Z,3.20
2019-03-24T12:29:28.907Z,3.60
2019-03-24T12:30:28.901Z,3.10
2019-03-24T12:31:28.889Z,3.00
2019-03-24T12:32:28.949Z,3.80
2019-03-24T12:33:28.866Z,2.80
2019-03-24T12:34:28.850Z,3.10
2019-03-24T12:35:28.856Z,3.20
2019-03-24T12:36:28.834Z,3.50
2019-03-24T12:37:28.901Z,3.40
2019-03-24T12:38:28.816Z,2.70
2019-03-24T12:39:28.814Z,3.70
2019-03-24T12:40:28.788Z,2.90
2019-03-24T12:41:29.743Z,3.10
2019-03-24T12:42:28.793Z,2.70
2019-03-24T12:43:28.761Z,3.00
2019-03-24T12:44:28.772Z,3.30
2019-03-24T12:45:28.740Z,4.10
2019-03-24T12:46:28.730Z,4.00
2019-03-24T12:47:28.739Z,3.20
2019-03-24T12:48:28.793Z,3.40
2019-03-24T12:49:28.715Z,3.50
2019-03-24T12:50:31.737Z,3.10
2019-03-24T12:51:28.669Z,2.80
2019-03-24T12:52:28.662Z,3.10
2019-03-24T12:53:30.285Z,2.80
2019-03-24T12:54:28.644Z,2.90
2019-03-24T12:55:28.675Z,3.10
2019-03-24T12:56:28.627Z,2.90
2019-03-24T12:57:28.607Z,3.10
2019-03-24T12:58:28.619Z,3.10
2019-03-24T12:59:28.597Z,3.40
2019-03-24T13:00:28.611Z,2.60
2019-03-24T13:01:28.587Z,2.70
2019-03-24T13:02:28.569Z,2.70
2019-03-24T13:03:28.600Z,3.10
2019-03-24T13:04:28.550Z,2.60
2019-03-24T13:05:28.559Z,7.20
2019-03-24T13:06:28.519Z,3.40
2019-03-24T13:07:28.515Z,6.50
2019-03-24T13:08:28.534Z,4.50